sensor_id;sensor_type;location;lat;lon;timestamp;P1;durP1;ratioP1;P2;durP2;ratioP2
77705;SDS011;66874;45.274;5.880;2023-10-13T00:00:28;5.95;;;2.45;;
77705;SDS011;66874;45.274;5.880;2023-10-13T00:02:56;12.40;;;3.60;;
77705;SDS011;66874;45.274;5.880;2023-10-13T00:05:25;7.43;;;2.42;;
77705;SDS011;66874;45.274;5.880;2023-10-13T00:07:55;6.00;;;2.40;;
77705;SDS011;66874;45.274;5.880;2023-10-13T00:10:21;5.20;;;2.28;;
77705;SDS011;66874;45.274;5.880;2023-10-13T00:12:47;5.05;;;2.38;;
77705;SDS011;66874;45.274;5.880;2023-10-13T00:15:16;3.67;;;2.30;;
77705;SDS011;66874;45.274;5.880;2023-10-13T00:17:42;3.20;;;1.80;;
77705;SDS011;66874;45.274;5.880;2023-10-13T00:20:08;5.80;;;2.17;;
77705;SDS011;66874;45.274;5.880;2023-10-13T00:22:53;5.15;;;2.00;;
77705;SDS011;66874;45.274;5.880;2023-10-13T00:25:21;4.18;;;2.17;;
77705;SDS011;66874;45.274;5.880;2023-10-13T00:27:52;3.35;;;2.10;;
77705;SDS011;66874;45.274;5.880;2023-10-13T00:30:17;6.40;;;2.45;;
77705;SDS011;66874;45.274;5.880;2023-10-13T00:32:43;5.60;;;2.17;;
77705;SDS011;66874;45.274;5.880;2023-10-13T00:35:11;5.82;;;2.22;;
77705;SDS011;66874;45.274;5.880;2023-10-13T00:37:39;4.38;;;2.20;;
77705;SDS011;66874;45.274;5.880;2023-10-13T00:40:11;10.68;;;2.85;;
77705;SDS011;66874;45.274;5.880;2023-10-13T00:42:55;4.53;;;2.20;;
77705;SDS011;66874;45.274;5.880;2023-10-13T00:45:41;6.85;;;2.85;;
77705;SDS011;66874;45.274;5.880;2023-10-13T00:48:09;6.32;;;2.10;;
77705;SDS011;66874;45.274;5.880;2023-10-13T00:50:37;7.57;;;2.50;;
77705;SDS011;66874;45.274;5.880;2023-10-13T00:53:03;6.95;;;2.63;;
77705;SDS011;66874;45.274;5.880;2023-10-13T00:55:29;4.53;;;1.85;;
77705;SDS011;66874;45.274;5.880;2023-10-13T00:57:58;6.88;;;2.55;;
77705;SDS011;66874;45.274;5.880;2023-10-13T01:00:28;3.65;;;2.15;;
77705;SDS011;66874;45.274;5.880;2023-10-13T01:02:55;6.28;;;2.20;;
77705;SDS011;66874;45.274;5.880;2023-10-13T01:05:31;7.03;;;2.75;;
77705;SDS011;66874;45.274;5.880;2023-10-13T01:08:01;8.48;;;2.55;;
77705;SDS011;66874;45.274;5.880;2023-10-13T01:10:27;6.97;;;2.33;;
77705;SDS011;66874;45.274;5.880;2023-10-13T01:12:53;9.75;;;2.80;;
77705;SDS011;66874;45.274;5.880;2023-10-13T01:15:19;10.63;;;3.67;;
77705;SDS011;66874;45.274;5.880;2023-10-13T01:17:54;8.18;;;2.60;;
77705;SDS011;66874;45.274;5.880;2023-10-13T01:20:21;8.65;;;2.63;;
77705;SDS011;66874;45.274;5.880;2023-10-13T01:22:50;6.70;;;2.70;;
77705;SDS011;66874;45.274;5.880;2023-10-13T01:25:24;7.55;;;2.22;;
77705;SDS011;66874;45.274;5.880;2023-10-13T01:27:52;3.50;;;2.15;;
77705;SDS011;66874;45.274;5.880;2023-10-13T01:30:17;3.45;;;2.30;;
77705;SDS011;66874;45.274;5.880;2023-10-13T01:32:48;4.68;;;2.13;;
77705;SDS011;66874;45.274;5.880;2023-10-13T01:35:16;6.53;;;2.65;;
77705;SDS011;66874;45.274;5.880;2023-10-13T01:37:44;8.82;;;2.67;;
77705;SDS011;66874;45.274;5.880;2023-10-13T01:40:10;4.72;;;2.28;;
77705;SDS011;66874;45.274;5.880;2023-10-13T01:42:38;4.63;;;2.70;;
77705;SDS011;66874;45.274;5.880;2023-10-13T01:45:04;3.67;;;2.17;;
77705;SDS011;66874;45.274;5.880;2023-10-13T01:47:31;4.65;;;2.20;;
77705;SDS011;66874;45.274;5.880;2023-10-13T01:52:23;3.90;;;2.92;;
77705;SDS011;66874;45.274;5.880;2023-10-13T01:54:50;7.80;;;2.57;;
77705;SDS011;66874;45.274;5.880;2023-10-13T01:57:16;4.65;;;2.35;;
77705;SDS011;66874;45.274;5.880;2023-10-13T01:59:46;9.68;;;2.75;;
77705;SDS011;66874;45.274;5.880;2023-10-13T02:02:13;6.13;;;2.50;;
77705;SDS011;66874;45.274;5.880;2023-10-13T02:04:42;6.13;;;2.53;;
77705;SDS011;66874;45.274;5.880;2023-10-13T02:07:14;5.55;;;2.10;;
77705;SDS011;66874;45.274;5.880;2023-10-13T02:09:40;6.20;;;2.45;;
77705;SDS011;66874;45.274;5.880;2023-10-13T02:12:08;5.53;;;2.05;;
77705;SDS011;66874;45.274;5.880;2023-10-13T02:14:34;4.50;;;2.22;;
77705;SDS011;66874;45.274;5.880;2023-10-13T02:17:03;4.63;;;2.85;;
77705;SDS011;66874;45.274;5.880;2023-10-13T02:19:40;5.25;;;2.30;;
77705;SDS011;66874;45.274;5.880;2023-10-13T02:22:10;9.85;;;3.10;;
77705;SDS011;66874;45.274;5.880;2023-10-13T02:24:37;4.50;;;2.28;;
77705;SDS011;66874;45.274;5.880;2023-10-13T02:27:08;10.07;;;2.80;;
77705;SDS011;66874;45.274;5.880;2023-10-13T02:29:42;9.10;;;2.50;;
77705;SDS011;66874;45.274;5.880;2023-10-13T02:32:11;9.45;;;3.00;;
77705;SDS011;66874;45.274;5.880;2023-10-13T02:34:47;9.38;;;3.90;;
77705;SDS011;66874;45.274;5.880;2023-10-13T02:37:12;6.38;;;3.50;;
77705;SDS011;66874;45.274;5.880;2023-10-13T02:39:39;5.40;;;2.80;;
77705;SDS011;66874;45.274;5.880;2023-10-13T02:42:08;6.30;;;2.75;;
77705;SDS011;66874;45.274;5.880;2023-10-13T02:44:41;6.85;;;3.28;;
77705;SDS011;66874;45.274;5.880;2023-10-13T02:47:11;9.25;;;3.20;;
77705;SDS011;66874;45.274;5.880;2023-10-13T02:49:39;6.47;;;2.90;;
77705;SDS011;66874;45.274;5.880;2023-10-13T02:52:08;7.05;;;2.40;;
77705;SDS011;66874;45.274;5.880;2023-10-13T02:54:34;12.65;;;3.30;;
77705;SDS011;66874;45.274;5.880;2023-10-13T02:57:05;8.43;;;2.55;;
77705;SDS011;66874;45.274;5.880;2023-10-13T02:59:31;9.50;;;2.75;;
77705;SDS011;66874;45.274;5.880;2023-10-13T03:02:05;4.75;;;2.20;;
77705;SDS011;66874;45.274;5.880;2023-10-13T03:04:55;4.45;;;2.65;;
77705;SDS011;66874;45.274;5.880;2023-10-13T03:07:25;10.48;;;2.78;;
77705;SDS011;66874;45.274;5.880;2023-10-13T03:09:53;6.43;;;2.47;;
77705;SDS011;66874;45.274;5.880;2023-10-13T03:12:23;7.25;;;2.33;;
77705;SDS011;66874;45.274;5.880;2023-10-13T03:14:49;7.80;;;2.15;;
77705;SDS011;66874;45.274;5.880;2023-10-13T03:17:35;5.15;;;2.72;;
77705;SDS011;66874;45.274;5.880;2023-10-13T03:20:01;7.18;;;2.85;;
77705;SDS011;66874;45.274;5.880;2023-10-13T03:22:28;4.47;;;2.95;;
77705;SDS011;66874;45.274;5.880;2023-10-13T03:24:56;6.38;;;2.60;;
77705;SDS011;66874;45.274;5.880;2023-10-13T03:27:29;7.25;;;3.40;;
77705;SDS011;66874;45.274;5.880;2023-10-13T03:30:06;5.68;;;2.33;;
77705;SDS011;66874;45.274;5.880;2023-10-13T03:32:38;4.70;;;2.30;;
77705;SDS011;66874;45.274;5.880;2023-10-13T03:35:09;6.85;;;2.63;;
77705;SDS011;66874;45.274;5.880;2023-10-13T03:37:50;6.45;;;2.53;;
77705;SDS011;66874;45.274;5.880;2023-10-13T03:40:22;9.50;;;2.78;;
77705;SDS011;66874;45.274;5.880;2023-10-13T03:42:48;7.82;;;2.83;;
77705;SDS011;66874;45.274;5.880;2023-10-13T03:45:34;10.15;;;2.75;;
77705;SDS011;66874;45.274;5.880;2023-10-13T03:48:08;7.20;;;2.33;;
77705;SDS011;66874;45.274;5.880;2023-10-13T03:50:35;5.55;;;2.58;;
77705;SDS011;66874;45.274;5.880;2023-10-13T03:53:02;5.30;;;2.88;;
77705;SDS011;66874;45.274;5.880;2023-10-13T03:55:31;7.25;;;2.78;;
77705;SDS011;66874;45.274;5.880;2023-10-13T03:58:00;8.48;;;2.33;;
77705;SDS011;66874;45.274;5.880;2023-10-13T04:00:25;5.85;;;2.10;;
77705;SDS011;66874;45.274;5.880;2023-10-13T04:02:52;5.53;;;2.93;;
77705;SDS011;66874;45.274;5.880;2023-10-13T04:05:27;9.93;;;2.70;;
77705;SDS011;66874;45.274;5.880;2023-10-13T04:08:04;5.72;;;2.50;;
77705;SDS011;66874;45.274;5.880;2023-10-13T04:10:49;7.13;;;2.88;;
77705;SDS011;66874;45.274;5.880;2023-10-13T04:13:16;7.03;;;3.13;;
77705;SDS011;66874;45.274;5.880;2023-10-13T04:16:00;10.88;;;2.80;;
77705;SDS011;66874;45.274;5.880;2023-10-13T04:19:01;6.53;;;2.75;;
77705;SDS011;66874;45.274;5.880;2023-10-13T04:21:27;7.10;;;2.60;;
77705;SDS011;66874;45.274;5.880;2023-10-13T04:24:11;8.88;;;3.22;;
77705;SDS011;66874;45.274;5.880;2023-10-13T04:26:47;4.65;;;2.97;;
77705;SDS011;66874;45.274;5.880;2023-10-13T04:29:32;5.28;;;2.47;;
77705;SDS011;66874;45.274;5.880;2023-10-13T04:32:16;5.47;;;2.60;;
77705;SDS011;66874;45.274;5.880;2023-10-13T04:35:03;5.90;;;2.83;;
77705;SDS011;66874;45.274;5.880;2023-10-13T04:37:43;5.25;;;2.80;;
77705;SDS011;66874;45.274;5.880;2023-10-13T04:40:40;14.20;;;3.03;;
77705;SDS011;66874;45.274;5.880;2023-10-13T04:43:23;6.30;;;2.50;;
77705;SDS011;66874;45.274;5.880;2023-10-13T04:45:59;8.95;;;2.78;;
77705;SDS011;66874;45.274;5.880;2023-10-13T04:48:39;8.25;;;2.60;;
77705;SDS011;66874;45.274;5.880;2023-10-13T04:51:05;7.32;;;3.10;;
77705;SDS011;66874;45.274;5.880;2023-10-13T04:54:09;8.50;;;2.75;;
77705;SDS011;66874;45.274;5.880;2023-10-13T04:56:50;6.80;;;2.75;;
77705;SDS011;66874;45.274;5.880;2023-10-13T04:59:40;5.55;;;2.90;;
77705;SDS011;66874;45.274;5.880;2023-10-13T05:02:42;7.60;;;2.85;;
77705;SDS011;66874;45.274;5.880;2023-10-13T05:05:26;8.00;;;2.60;;
77705;SDS011;66874;45.274;5.880;2023-10-13T05:08:12;7.38;;;2.97;;
77705;SDS011;66874;45.274;5.880;2023-10-13T05:10:56;7.90;;;2.60;;
77705;SDS011;66874;45.274;5.880;2023-10-13T05:13:40;5.38;;;2.78;;
77705;SDS011;66874;45.274;5.880;2023-10-13T05:16:24;6.63;;;2.88;;
77705;SDS011;66874;45.274;5.880;2023-10-13T05:19:08;6.53;;;3.30;;
77705;SDS011;66874;45.274;5.880;2023-10-13T05:21:52;6.07;;;3.03;;
77705;SDS011;66874;45.274;5.880;2023-10-13T05:24:36;8.30;;;3.20;;
77705;SDS011;66874;45.274;5.880;2023-10-13T05:27:20;7.13;;;3.28;;
77705;SDS011;66874;45.274;5.880;2023-10-13T05:30:04;8.70;;;3.58;;
77705;SDS011;66874;45.274;5.880;2023-10-13T05:32:49;5.50;;;2.30;;
77705;SDS011;66874;45.274;5.880;2023-10-13T05:35:33;4.55;;;2.72;;
77705;SDS011;66874;45.274;5.880;2023-10-13T05:38:17;8.13;;;2.42;;
77705;SDS011;66874;45.274;5.880;2023-10-13T05:41:04;7.90;;;2.75;;
77705;SDS011;66874;45.274;5.880;2023-10-13T05:43:49;5.63;;;2.47;;
77705;SDS011;66874;45.274;5.880;2023-10-13T05:46:33;7.82;;;2.92;;
77705;SDS011;66874;45.274;5.880;2023-10-13T05:49:05;10.50;;;3.08;;
77705;SDS011;66874;45.274;5.880;2023-10-13T05:51:37;7.70;;;2.60;;
77705;SDS011;66874;45.274;5.880;2023-10-13T05:54:03;7.43;;;2.95;;
77705;SDS011;66874;45.274;5.880;2023-10-13T05:56:41;5.43;;;2.72;;
77705;SDS011;66874;45.274;5.880;2023-10-13T05:59:35;6.50;;;3.40;;
77705;SDS011;66874;45.274;5.880;2023-10-13T06:02:21;8.57;;;2.97;;
77705;SDS011;66874;45.274;5.880;2023-10-13T06:05:07;15.10;;;3.38;;
77705;SDS011;66874;45.274;5.880;2023-10-13T06:07:52;5.05;;;2.88;;
77705;SDS011;66874;45.274;5.880;2023-10-13T06:10:36;7.82;;;3.38;;
77705;SDS011;66874;45.274;5.880;2023-10-13T06:13:21;5.25;;;3.03;;
77705;SDS011;66874;45.274;5.880;2023-10-13T06:16:09;8.02;;;3.00;;
77705;SDS011;66874;45.274;5.880;2023-10-13T06:18:53;13.70;;;3.08;;
77705;SDS011;66874;45.274;5.880;2023-10-13T06:21:37;14.57;;;3.30;;
77705;SDS011;66874;45.274;5.880;2023-10-13T06:24:21;9.50;;;3.15;;
77705;SDS011;66874;45.274;5.880;2023-10-13T06:27:06;10.90;;;3.55;;
77705;SDS011;66874;45.274;5.880;2023-10-13T06:29:49;11.45;;;3.03;;
77705;SDS011;66874;45.274;5.880;2023-10-13T06:32:15;7.25;;;3.83;;
77705;SDS011;66874;45.274;5.880;2023-10-13T06:34:41;9.75;;;3.20;;
77705;SDS011;66874;45.274;5.880;2023-10-13T06:37:13;7.20;;;3.22;;
77705;SDS011;66874;45.274;5.880;2023-10-13T06:40:03;7.82;;;3.22;;
77705;SDS011;66874;45.274;5.880;2023-10-13T06:42:44;9.10;;;3.30;;
77705;SDS011;66874;45.274;5.880;2023-10-13T06:45:09;10.57;;;3.65;;
77705;SDS011;66874;45.274;5.880;2023-10-13T06:47:36;8.02;;;3.22;;
77705;SDS011;66874;45.274;5.880;2023-10-13T06:50:08;13.88;;;3.38;;
77705;SDS011;66874;45.274;5.880;2023-10-13T06:52:43;8.00;;;3.03;;
77705;SDS011;66874;45.274;5.880;2023-10-13T06:55:09;7.07;;;3.10;;
77705;SDS011;66874;45.274;5.880;2023-10-13T06:57:42;11.98;;;3.30;;
77705;SDS011;66874;45.274;5.880;2023-10-13T07:00:09;7.93;;;3.72;;
77705;SDS011;66874;45.274;5.880;2023-10-13T07:02:44;6.88;;;3.08;;
77705;SDS011;66874;45.274;5.880;2023-10-13T07:05:09;7.40;;;3.00;;
77705;SDS011;66874;45.274;5.880;2023-10-13T07:07:38;5.57;;;3.45;;
77705;SDS011;66874;45.274;5.880;2023-10-13T07:10:08;6.88;;;3.63;;
77705;SDS011;66874;45.274;5.880;2023-10-13T07:12:37;14.07;;;3.63;;
77705;SDS011;66874;45.274;5.880;2023-10-13T07:15:08;11.13;;;4.05;;
77705;SDS011;66874;45.274;5.880;2023-10-13T07:17:45;11.15;;;3.42;;
77705;SDS011;66874;45.274;5.880;2023-10-13T07:20:12;7.55;;;3.45;;
77705;SDS011;66874;45.274;5.880;2023-10-13T07:22:43;17.10;;;3.67;;
77705;SDS011;66874;45.274;5.880;2023-10-13T07:25:27;9.95;;;3.72;;
77705;SDS011;66874;45.274;5.880;2023-10-13T07:27:57;8.95;;;3.40;;
77705;SDS011;66874;45.274;5.880;2023-10-13T07:30:26;10.27;;;3.00;;
77705;SDS011;66874;45.274;5.880;2023-10-13T07:32:52;10.68;;;3.33;;
77705;SDS011;66874;45.274;5.880;2023-10-13T07:35:19;13.93;;;3.85;;
77705;SDS011;66874;45.274;5.880;2023-10-13T07:37:49;7.70;;;2.78;;
77705;SDS011;66874;45.274;5.880;2023-10-13T07:42:51;14.80;;;3.92;;
77705;SDS011;66874;45.274;5.880;2023-10-13T07:45:28;15.18;;;5.75;;
77705;SDS011;66874;45.274;5.880;2023-10-13T07:48:09;13.15;;;6.07;;
77705;SDS011;66874;45.274;5.880;2023-10-13T07:50:46;18.55;;;5.65;;
77705;SDS011;66874;45.274;5.880;2023-10-13T07:53:14;8.75;;;4.82;;
77705;SDS011;66874;45.274;5.880;2023-10-13T07:55:48;21.10;;;4.43;;
77705;SDS011;66874;45.274;5.880;2023-10-13T07:58:23;15.73;;;4.03;;
77705;SDS011;66874;45.274;5.880;2023-10-13T08:00:51;14.80;;;4.25;;
77705;SDS011;66874;45.274;5.880;2023-10-13T08:03:32;12.85;;;4.05;;
77705;SDS011;66874;45.274;5.880;2023-10-13T08:06:09;11.60;;;3.92;;
77705;SDS011;66874;45.274;5.880;2023-10-13T08:08:35;9.15;;;4.10;;
77705;SDS011;66874;45.274;5.880;2023-10-13T08:11:07;8.75;;;3.30;;
77705;SDS011;66874;45.274;5.880;2023-10-13T08:13:40;7.10;;;3.75;;
77705;SDS011;66874;45.274;5.880;2023-10-13T08:16:14;10.65;;;4.30;;
77705;SDS011;66874;45.274;5.880;2023-10-13T08:18:48;12.10;;;4.07;;
77705;SDS011;66874;45.274;5.880;2023-10-13T08:21:14;12.80;;;5.03;;
77705;SDS011;66874;45.274;5.880;2023-10-13T08:23:48;15.05;;;4.32;;
77705;SDS011;66874;45.274;5.880;2023-10-13T08:26:24;11.90;;;4.53;;
77705;SDS011;66874;45.274;5.880;2023-10-13T08:29:09;19.10;;;4.53;;
77705;SDS011;66874;45.274;5.880;2023-10-13T08:34:30;12.52;;;4.93;;
77705;SDS011;66874;45.274;5.880;2023-10-13T08:37:07;17.33;;;4.72;;
77705;SDS011;66874;45.274;5.880;2023-10-13T08:39:59;13.13;;;3.88;;
77705;SDS011;66874;45.274;5.880;2023-10-13T08:42:26;10.60;;;3.92;;
77705;SDS011;66874;45.274;5.880;2023-10-13T08:45:09;7.50;;;4.00;;
77705;SDS011;66874;45.274;5.880;2023-10-13T08:48:00;12.93;;;4.30;;
77705;SDS011;66874;45.274;5.880;2023-10-13T08:50:35;10.02;;;3.75;;
77705;SDS011;66874;45.274;5.880;2023-10-13T08:53:17;6.32;;;3.92;;
77705;SDS011;66874;45.274;5.880;2023-10-13T08:55:52;8.73;;;3.53;;
77705;SDS011;66874;45.274;5.880;2023-10-13T08:58:27;10.65;;;3.90;;
77705;SDS011;66874;45.274;5.880;2023-10-13T09:01:13;11.73;;;4.10;;
77705;SDS011;66874;45.274;5.880;2023-10-13T09:03:40;14.05;;;3.92;;
77705;SDS011;66874;45.274;5.880;2023-10-13T09:06:12;11.02;;;4.15;;
77705;SDS011;66874;45.274;5.880;2023-10-13T09:11:31;6.07;;;3.17;;
77705;SDS011;66874;45.274;5.880;2023-10-13T09:14:13;10.32;;;3.10;;
77705;SDS011;66874;45.274;5.880;2023-10-13T09:17:02;4.90;;;2.75;;
77705;SDS011;66874;45.274;5.880;2023-10-13T09:19:47;14.43;;;3.50;;
77705;SDS011;66874;45.274;5.880;2023-10-13T09:25:00;7.72;;;3.05;;
77705;SDS011;66874;45.274;5.880;2023-10-13T09:27:27;4.82;;;3.28;;
77705;SDS011;66874;45.274;5.880;2023-10-13T09:30:01;16.73;;;3.67;;
77705;SDS011;66874;45.274;5.880;2023-10-13T09:32:52;6.65;;;3.63;;
77705;SDS011;66874;45.274;5.880;2023-10-13T09:35:29;19.25;;;4.32;;
77705;SDS011;66874;45.274;5.880;2023-10-13T09:37:59;14.93;;;4.13;;
77705;SDS011;66874;45.274;5.880;2023-10-13T09:40:27;6.28;;;3.40;;
77705;SDS011;66874;45.274;5.880;2023-10-13T09:43:03;10.18;;;4.38;;
77705;SDS011;66874;45.274;5.880;2023-10-13T09:45:40;8.93;;;3.85;;
77705;SDS011;66874;45.274;5.880;2023-10-13T09:48:26;7.15;;;4.32;;
77705;SDS011;66874;45.274;5.880;2023-10-13T09:51:02;6.03;;;4.30;;
77705;SDS011;66874;45.274;5.880;2023-10-13T09:53:34;12.18;;;3.63;;
77705;SDS011;66874;45.274;5.880;2023-10-13T09:59:04;8.00;;;3.30;;
77705;SDS011;66874;45.274;5.880;2023-10-13T10:01:39;8.88;;;2.83;;
77705;SDS011;66874;45.274;5.880;2023-10-13T10:04:15;9.82;;;2.97;;
77705;SDS011;66874;45.274;5.880;2023-10-13T10:06:56;9.15;;;3.28;;
77705;SDS011;66874;45.274;5.880;2023-10-13T10:09:29;13.60;;;3.97;;
77705;SDS011;66874;45.274;5.880;2023-10-13T10:15:06;8.23;;;3.17;;
77705;SDS011;66874;45.274;5.880;2023-10-13T10:17:45;8.52;;;2.83;;
77705;SDS011;66874;45.274;5.880;2023-10-13T10:20:12;10.65;;;2.97;;
77705;SDS011;66874;45.274;5.880;2023-10-13T10:22:40;8.65;;;3.17;;
77705;SDS011;66874;45.274;5.880;2023-10-13T10:25:13;10.30;;;3.40;;
77705;SDS011;66874;45.274;5.880;2023-10-13T10:27:54;8.88;;;3.08;;
77705;SDS011;66874;45.274;5.880;2023-10-13T10:30:26;10.73;;;3.63;;
77705;SDS011;66874;45.274;5.880;2023-10-13T10:32:57;9.18;;;3.22;;
77705;SDS011;66874;45.274;5.880;2023-10-13T10:35:27;8.65;;;2.92;;
77705;SDS011;66874;45.274;5.880;2023-10-13T10:37:58;8.85;;;3.35;;
77705;SDS011;66874;45.274;5.880;2023-10-13T10:43:27;16.65;;;3.60;;
77705;SDS011;66874;45.274;5.880;2023-10-13T10:46:06;14.48;;;3.63;;
77705;SDS011;66874;45.274;5.880;2023-10-13T10:48:36;11.00;;;3.05;;
77705;SDS011;66874;45.274;5.880;2023-10-13T10:51:03;12.45;;;3.92;;
77705;SDS011;66874;45.274;5.880;2023-10-13T10:53:38;7.45;;;2.95;;
77705;SDS011;66874;45.274;5.880;2023-10-13T10:56:10;6.68;;;3.03;;
77705;SDS011;66874;45.274;5.880;2023-10-13T10:58:50;7.30;;;3.13;;
77705;SDS011;66874;45.274;5.880;2023-10-13T11:01:25;13.25;;;3.30;;
77705;SDS011;66874;45.274;5.880;2023-10-13T11:03:59;9.10;;;2.83;;
77705;SDS011;66874;45.274;5.880;2023-10-13T11:06:56;9.40;;;3.88;;
77705;SDS011;66874;45.274;5.880;2023-10-13T11:09:24;7.78;;;2.70;;
77705;SDS011;66874;45.274;5.880;2023-10-13T11:11:56;8.25;;;2.70;;
77705;SDS011;66874;45.274;5.880;2023-10-13T11:14:31;10.27;;;2.85;;
77705;SDS011;66874;45.274;5.880;2023-10-13T11:16:57;7.07;;;2.95;;
77705;SDS011;66874;45.274;5.880;2023-10-13T11:19:35;3.42;;;2.47;;
77705;SDS011;66874;45.274;5.880;2023-10-13T11:22:15;8.23;;;3.15;;
77705;SDS011;66874;45.274;5.880;2023-10-13T11:25:03;6.40;;;2.63;;
77705;SDS011;66874;45.274;5.880;2023-10-13T11:27:34;4.93;;;2.97;;
77705;SDS011;66874;45.274;5.880;2023-10-13T11:30:21;13.05;;;2.92;;
77705;SDS011;66874;45.274;5.880;2023-10-13T11:33:03;5.45;;;2.80;;
77705;SDS011;66874;45.274;5.880;2023-10-13T11:35:31;8.15;;;3.05;;
77705;SDS011;66874;45.274;5.880;2023-10-13T11:38:20;7.88;;;2.65;;
77705;SDS011;66874;45.274;5.880;2023-10-13T11:40:55;7.35;;;3.15;;
77705;SDS011;66874;45.274;5.880;2023-10-13T11:43:31;7.20;;;2.95;;
77705;SDS011;66874;45.274;5.880;2023-10-13T11:46:12;6.85;;;3.05;;
77705;SDS011;66874;45.274;5.880;2023-10-13T11:48:40;13.38;;;3.28;;
77705;SDS011;66874;45.274;5.880;2023-10-13T11:51:13;11.43;;;3.53;;
77705;SDS011;66874;45.274;5.880;2023-10-13T11:53:42;6.18;;;3.30;;
77705;SDS011;66874;45.274;5.880;2023-10-13T11:56:17;10.88;;;3.38;;
77705;SDS011;66874;45.274;5.880;2023-10-13T11:58:45;8.90;;;4.28;;
77705;SDS011;66874;45.274;5.880;2023-10-13T12:01:12;9.98;;;3.53;;
77705;SDS011;66874;45.274;5.880;2023-10-13T12:03:41;9.25;;;3.78;;
77705;SDS011;66874;45.274;5.880;2023-10-13T12:06:26;6.13;;;3.13;;
77705;SDS011;66874;45.274;5.880;2023-10-13T12:09:02;7.43;;;3.13;;
77705;SDS011;66874;45.274;5.880;2023-10-13T12:12:03;8.18;;;2.80;;
77705;SDS011;66874;45.274;5.880;2023-10-13T12:14:29;5.15;;;3.17;;
77705;SDS011;66874;45.274;5.880;2023-10-13T12:17:02;5.95;;;3.25;;
77705;SDS011;66874;45.274;5.880;2023-10-13T12:21:55;7.07;;;2.90;;
77705;SDS011;66874;45.274;5.880;2023-10-13T12:24:24;11.32;;;3.33;;
77705;SDS011;66874;45.274;5.880;2023-10-13T12:27:01;5.90;;;2.97;;
77705;SDS011;66874;45.274;5.880;2023-10-13T12:29:27;13.88;;;3.75;;
77705;SDS011;66874;45.274;5.880;2023-10-13T12:31:57;6.85;;;2.80;;
77705;SDS011;66874;45.274;5.880;2023-10-13T12:34:31;13.90;;;3.97;;
77705;SDS011;66874;45.274;5.880;2023-10-13T12:37:16;15.27;;;3.33;;
77705;SDS011;66874;45.274;5.880;2023-10-13T12:40:00;11.15;;;3.25;;
77705;SDS011;66874;45.274;5.880;2023-10-13T12:42:44;9.48;;;3.25;;
77705;SDS011;66874;45.274;5.880;2023-10-13T12:45:28;6.60;;;2.83;;
77705;SDS011;66874;45.274;5.880;2023-10-13T12:48:12;5.93;;;2.70;;
77705;SDS011;66874;45.274;5.880;2023-10-13T12:50:56;7.43;;;3.33;;
77705;SDS011;66874;45.274;5.880;2023-10-13T12:53:44;8.77;;;3.33;;
77705;SDS011;66874;45.274;5.880;2023-10-13T12:56:10;6.80;;;3.63;;
77705;SDS011;66874;45.274;5.880;2023-10-13T12:58:36;10.05;;;4.03;;
77705;SDS011;66874;45.274;5.880;2023-10-13T13:01:02;9.77;;;3.40;;
77705;SDS011;66874;45.274;5.880;2023-10-13T13:03:33;10.77;;;3.47;;
77705;SDS011;66874;45.274;5.880;2023-10-13T13:05:59;9.43;;;3.85;;
77705;SDS011;66874;45.274;5.880;2023-10-13T13:08:32;9.45;;;3.20;;
77705;SDS011;66874;45.274;5.880;2023-10-13T13:11:00;6.70;;;3.25;;
77705;SDS011;66874;45.274;5.880;2023-10-13T13:13:29;13.48;;;2.88;;
77705;SDS011;66874;45.274;5.880;2023-10-13T13:15:55;7.00;;;3.07;;
77705;SDS011;66874;45.274;5.880;2023-10-13T13:18:21;5.70;;;2.58;;
77705;SDS011;66874;45.274;5.880;2023-10-13T13:20:46;5.87;;;2.07;;
77705;SDS011;66874;45.274;5.880;2023-10-13T13:23:18;18.08;;;2.72;;
77705;SDS011;66874;45.274;5.880;2023-10-13T13:25:47;20.10;;;2.42;;
77705;SDS011;66874;45.274;5.880;2023-10-13T13:28:13;9.98;;;2.15;;
77705;SDS011;66874;45.274;5.880;2023-10-13T13:30:43;6.70;;;2.38;;
77705;SDS011;66874;45.274;5.880;2023-10-13T13:33:09;6.88;;;2.30;;
77705;SDS011;66874;45.274;5.880;2023-10-13T13:35:40;5.57;;;2.40;;
77705;SDS011;66874;45.274;5.880;2023-10-13T13:38:08;4.40;;;2.22;;
77705;SDS011;66874;45.274;5.880;2023-10-13T13:40:52;6.70;;;1.98;;
77705;SDS011;66874;45.274;5.880;2023-10-13T13:43:22;16.73;;;2.63;;
77705;SDS011;66874;45.274;5.880;2023-10-13T13:46:02;8.45;;;2.13;;
77705;SDS011;66874;45.274;5.880;2023-10-13T13:48:29;5.07;;;2.30;;
77705;SDS011;66874;45.274;5.880;2023-10-13T13:50:54;3.57;;;1.70;;
77705;SDS011;66874;45.274;5.880;2023-10-13T13:53:31;8.27;;;4.63;;
77705;SDS011;66874;45.274;5.880;2023-10-13T13:56:03;4.03;;;2.35;;
77705;SDS011;66874;45.274;5.880;2023-10-13T13:58:29;6.33;;;2.53;;
77705;SDS011;66874;45.274;5.880;2023-10-13T14:01:02;6.13;;;1.95;;
77705;SDS011;66874;45.274;5.880;2023-10-13T14:03:42;9.55;;;2.05;;
77705;SDS011;66874;45.274;5.880;2023-10-13T14:06:14;5.30;;;1.92;;
77705;SDS011;66874;45.274;5.880;2023-10-13T14:08:48;6.18;;;1.55;;
77705;SDS011;66874;45.274;5.880;2023-10-13T14:11:20;5.45;;;2.13;;
77705;SDS011;66874;45.274;5.880;2023-10-13T14:14:13;4.78;;;1.80;;
77705;SDS011;66874;45.274;5.880;2023-10-13T14:16:49;9.77;;;2.00;;
77705;SDS011;66874;45.274;5.880;2023-10-13T14:19:15;5.63;;;1.67;;
77705;SDS011;66874;45.274;5.880;2023-10-13T14:21:56;9.48;;;2.22;;
77705;SDS011;66874;45.274;5.880;2023-10-13T14:24:23;9.27;;;1.70;;
77705;SDS011;66874;45.274;5.880;2023-10-13T14:27:08;8.60;;;2.30;;
77705;SDS011;66874;45.274;5.880;2023-10-13T14:29:37;13.35;;;2.20;;
77705;SDS011;66874;45.274;5.880;2023-10-13T14:32:11;10.38;;;2.03;;
77705;SDS011;66874;45.274;5.880;2023-10-13T14:34:39;9.55;;;2.15;;
77705;SDS011;66874;45.274;5.880;2023-10-13T14:37:05;3.97;;;1.63;;
77705;SDS011;66874;45.274;5.880;2023-10-13T14:39:31;3.95;;;1.77;;
77705;SDS011;66874;45.274;5.880;2023-10-13T14:41:59;9.75;;;2.30;;
77705;SDS011;66874;45.274;5.880;2023-10-13T14:44:27;8.20;;;1.90;;
77705;SDS011;66874;45.274;5.880;2023-10-13T14:46:53;6.13;;;1.90;;
77705;SDS011;66874;45.274;5.880;2023-10-13T14:49:21;5.53;;;2.22;;
77705;SDS011;66874;45.274;5.880;2023-10-13T14:51:47;9.23;;;2.25;;
77705;SDS011;66874;45.274;5.880;2023-10-13T14:54:14;5.57;;;2.20;;
77705;SDS011;66874;45.274;5.880;2023-10-13T14:56:40;6.00;;;2.50;;
77705;SDS011;66874;45.274;5.880;2023-10-13T14:59:07;9.65;;;2.17;;
77705;SDS011;66874;45.274;5.880;2023-10-13T15:01:41;5.55;;;2.38;;
77705;SDS011;66874;45.274;5.880;2023-10-13T15:04:07;6.68;;;2.28;;
77705;SDS011;66874;45.274;5.880;2023-10-13T15:06:33;8.73;;;1.93;;
77705;SDS011;66874;45.274;5.880;2023-10-13T15:08:58;4.83;;;1.93;;
77705;SDS011;66874;45.274;5.880;2023-10-13T15:11:25;8.65;;;2.15;;
77705;SDS011;66874;45.274;5.880;2023-10-13T15:14:01;11.00;;;2.17;;
77705;SDS011;66874;45.274;5.880;2023-10-13T15:16:27;9.85;;;2.08;;
77705;SDS011;66874;45.274;5.880;2023-10-13T15:18:52;4.78;;;2.03;;
77705;SDS011;66874;45.274;5.880;2023-10-13T15:21:22;12.55;;;2.40;;
77705;SDS011;66874;45.274;5.880;2023-10-13T15:23:51;4.07;;;2.13;;
77705;SDS011;66874;45.274;5.880;2023-10-13T15:26:20;3.25;;;1.85;;
77705;SDS011;66874;45.274;5.880;2023-10-13T15:28:48;5.63;;;1.90;;
77705;SDS011;66874;45.274;5.880;2023-10-13T15:31:17;12.20;;;2.05;;
77705;SDS011;66874;45.274;5.880;2023-10-13T15:34:02;5.88;;;2.65;;
77705;SDS011;66874;45.274;5.880;2023-10-13T15:36:43;5.85;;;2.10;;
77705;SDS011;66874;45.274;5.880;2023-10-13T15:39:09;4.20;;;2.05;;
77705;SDS011;66874;45.274;5.880;2023-10-13T15:41:36;5.28;;;1.90;;
77705;SDS011;66874;45.274;5.880;2023-10-13T15:44:10;6.10;;;2.10;;
77705;SDS011;66874;45.274;5.880;2023-10-13T15:46:36;6.85;;;2.45;;
77705;SDS011;66874;45.274;5.880;2023-10-13T15:49:02;8.15;;;2.08;;